createdAt,value
2023-01-09T00:01:46.176Z,12.78
2023-01-09T00:04:16.467Z,12.79
2023-01-09T00:06:46.731Z,12.76
2023-01-09T00:09:15.080Z,12.74
2023-01-09T00:11:43.165Z,12.64
2023-01-09T00:14:11.465Z,12.67
2023-01-09T00:16:39.666Z,12.82
2023-01-09T00:19:09.255Z,12.79
2023-01-09T00:21:38.344Z,12.96
2023-01-09T00:24:07.649Z,12.99
2023-01-09T00:26:36.045Z,12.98
2023-01-09T00:29:07.233Z,13.02
2023-01-09T00:31:35.253Z,13.06
2023-01-09T00:34:13.111Z,13.13
2023-01-09T00:36:41.192Z,13.09
2023-01-09T00:39:09.543Z,13.03
2023-01-09T00:41:42.232Z,12.95
2023-01-09T00:44:17.460Z,12.97
2023-01-09T00:46:48.200Z,12.98
2023-01-09T00:49:17.460Z,13.01
2023-01-09T00:51:45.593Z,12.95
2023-01-09T00:54:18.068Z,12.98
2023-01-09T00:56:46.606Z,12.95
2023-01-09T00:59:15.024Z,12.81
2023-01-09T01:01:43.260Z,12.88
2023-01-09T01:04:30.178Z,12.91
2023-01-09T01:07:16.857Z,12.92
2023-01-09T01:09:45.315Z,13.08
2023-01-09T01:12:13.419Z,13.08
2023-01-09T01:14:41.868Z,12.96
2023-01-09T01:17:09.848Z,13.07
2023-01-09T01:19:39.569Z,13.14
2023-01-09T01:22:07.621Z,13.15
2023-01-09T01:24:36.617Z,13.18
2023-01-09T01:27:04.679Z,13.25
2023-01-09T01:29:33.090Z,13.03
2023-01-09T01:32:01.156Z,13.02
2023-01-09T01:34:30.222Z,13.03
2023-01-09T01:36:58.113Z,13.04
2023-01-09T01:39:26.468Z,13.08
2023-01-09T01:41:54.606Z,12.77
2023-01-09T01:45:01.335Z,12.89
2023-01-09T01:47:57.973Z,12.98
2023-01-09T01:50:53.592Z,13.06
2023-01-09T01:53:39.623Z,13.10
2023-01-09T01:56:25.032Z,12.94
2023-01-09T01:58:58.444Z,12.74
2023-01-09T02:01:27.722Z,12.28
2023-01-09T02:03:58.683Z,12.18
2023-01-09T02:06:27.792Z,11.87
2023-01-09T02:08:56.462Z,11.78
2023-01-09T02:11:25.445Z,11.93
2023-01-09T02:13:53.632Z,12.27
2023-01-09T02:16:43.036Z,12.18
2023-01-09T02:19:28.203Z,12.39
2023-01-09T02:22:19.742Z,12.64
2023-01-09T02:25:11.467Z,12.55
2023-01-09T02:28:03.962Z,12.78
2023-01-09T02:30:34.811Z,12.81
2023-01-09T02:33:18.092Z,12.20
2023-01-09T02:36:00.872Z,12.39
2023-01-09T02:38:37.005Z,12.28
2023-01-09T02:41:19.200Z,11.93
2023-01-09T02:43:47.532Z,11.85
2023-01-09T02:46:23.252Z,11.91
2023-01-09T02:48:54.358Z,12.05
2023-01-09T02:51:40.895Z,11.81
2023-01-09T02:54:24.170Z,11.69
2023-01-09T02:57:10.491Z,11.61
2023-01-09T03:00:04.202Z,11.95
2023-01-09T03:02:54.420Z,11.96
2023-01-09T03:05:30.772Z,12.18
2023-01-09T03:07:58.631Z,12.02
2023-01-09T03:10:31.122Z,11.47
2023-01-09T03:13:02.323Z,11.52
2023-01-09T03:15:36.812Z,11.72
2023-01-09T03:18:09.242Z,11.83
2023-01-09T03:20:39.672Z,11.92
2023-01-09T03:23:08.785Z,11.88
2023-01-09T03:25:38.232Z,11.77
2023-01-09T03:28:09.853Z,11.73
2023-01-09T03:30:38.092Z,11.84
2023-01-09T03:33:06.269Z,11.73
2023-01-09T03:35:34.607Z,11.63
2023-01-09T03:38:02.575Z,11.69
2023-01-09T03:40:30.865Z,11.60
2023-01-09T03:42:58.810Z,11.72
2023-01-09T03:45:27.178Z,11.80
2023-01-09T03:47:55.275Z,12.01
2023-01-09T03:50:23.580Z,11.81
2023-01-09T03:52:51.622Z,11.85
2023-01-09T03:55:20.007Z,12.06
2023-01-09T03:57:47.904Z,11.87
2023-01-09T04:00:16.500Z,11.94
2023-01-09T04:02:44.430Z,11.83
2023-01-09T04:05:13.028Z,11.93
2023-01-09T04:07:41.063Z,11.83
2023-01-09T04:10:10.784Z,11.82
2023-01-09T04:12:38.808Z,11.82
2023-01-09T04:15:07.654Z,11.72
2023-01-09T04:17:35.856Z,11.66
2023-01-09T04:20:05.769Z,11.78
2023-01-09T04:22:33.798Z,11.68
2023-01-09T04:25:04.055Z,11.69
2023-01-09T04:27:32.009Z,11.81
2023-01-09T04:30:00.841Z,11.57
2023-01-09T04:32:29.122Z,11.62
2023-01-09T04:34:58.508Z,11.60
2023-01-09T04:37:26.477Z,11.66
2023-01-09T04:39:56.292Z,11.65
2023-01-09T04:42:24.685Z,11.61
2023-01-09T04:44:54.442Z,11.55
2023-01-09T04:47:24.705Z,11.81
2023-01-09T04:49:53.254Z,11.47
2023-01-09T04:52:21.295Z,11.53
2023-01-09T04:54:49.488Z,11.60
2023-01-09T04:57:18.083Z,11.44
2023-01-09T04:59:46.698Z,11.51
2023-01-09T05:02:14.754Z,11.64
2023-01-09T05:04:43.434Z,11.56
2023-01-09T05:07:11.378Z,11.44
2023-01-09T05:09:40.755Z,11.50
2023-01-09T05:12:08.717Z,11.64
2023-01-09T05:14:36.955Z,11.44
2023-01-09T05:17:04.954Z,11.61
2023-01-09T05:19:34.758Z,11.46
2023-01-09T05:22:02.667Z,11.13
2023-01-09T05:24:31.028Z,11.50
2023-01-09T05:26:59.011Z,11.32
2023-01-09T05:29:27.276Z,11.38
2023-01-09T05:31:55.375Z,11.54
2023-01-09T05:34:25.682Z,11.66
2023-01-09T05:36:53.668Z,11.63
2023-01-09T05:39:22.142Z,11.61
2023-01-09T05:41:50.066Z,11.75
2023-01-09T05:44:19.375Z,11.68
2023-01-09T05:46:47.301Z,11.75
2023-01-09T05:49:15.643Z,11.27
2023-01-09T05:51:43.524Z,11.27
2023-01-09T05:54:11.798Z,11.36
2023-01-09T05:56:39.776Z,11.33
2023-01-09T05:59:08.036Z,11.30
2023-01-09T06:01:36.048Z,11.19
2023-01-09T06:04:06.295Z,11.31
2023-01-09T06:06:34.154Z,11.04
2023-01-09T06:09:03.788Z,10.98
2023-01-09T06:11:31.747Z,11.16
2023-01-09T06:14:00.144Z,11.25
2023-01-09T06:16:28.244Z,11.27
2023-01-09T06:18:57.776Z,11.42
2023-01-09T06:21:25.685Z,11.14
2023-01-09T06:23:56.699Z,11.05
2023-01-09T06:26:26.158Z,11.19
2023-01-09T06:28:57.411Z,11.11
2023-01-09T06:31:25.914Z,10.95
2023-01-09T06:33:54.473Z,10.90
2023-01-09T06:36:23.548Z,11.20
2023-01-09T06:38:51.850Z,11.22
2023-01-09T06:41:19.836Z,11.30
2023-01-09T06:43:48.774Z,11.35
2023-01-09T06:46:16.840Z,11.50
2023-01-09T06:48:46.235Z,11.30
2023-01-09T06:51:14.147Z,11.32
2023-01-09T06:53:42.327Z,11.29
2023-01-09T06:56:10.375Z,11.28
2023-01-09T06:58:39.774Z,11.28
2023-01-09T07:01:07.825Z,11.39
2023-01-09T07:03:36.196Z,11.42
2023-01-09T07:06:05.181Z,11.43
2023-01-09T07:08:34.649Z,11.39
2023-01-09T07:11:02.526Z,11.39
2023-01-09T07:13:30.775Z,11.47
2023-01-09T07:15:58.724Z,11.52
2023-01-09T07:18:26.954Z,11.39
2023-01-09T07:20:54.893Z,11.44
2023-01-09T07:23:23.233Z,11.45
2023-01-09T07:25:52.576Z,11.44
2023-01-09T07:28:20.814Z,11.27
2023-01-09T07:30:48.666Z,11.33
2023-01-09T07:33:17.171Z,10.78
2023-01-09T07:35:44.999Z,10.72
2023-01-09T07:38:13.264Z,10.76
2023-01-09T07:40:41.269Z,10.95
2023-01-09T07:43:09.484Z,11.18
2023-01-09T07:45:37.363Z,11.31
2023-01-09T07:48:07.009Z,11.19
2023-01-09T07:50:35.543Z,11.28
2023-01-09T07:53:03.804Z,11.42
2023-01-09T07:55:31.729Z,11.19
2023-01-09T07:57:59.931Z,11.46
2023-01-09T08:00:30.012Z,11.29
2023-01-09T08:02:59.415Z,11.23
2023-01-09T08:05:27.408Z,11.46
2023-01-09T08:07:55.736Z,11.51
2023-01-09T08:10:23.733Z,11.45
2023-01-09T08:12:53.103Z,11.37
2023-01-09T08:15:20.997Z,11.28
2023-01-09T08:17:49.227Z,10.92
2023-01-09T08:20:18.453Z,11.17
2023-01-09T08:22:51.396Z,10.84
2023-01-09T08:25:19.435Z,10.93
2023-01-09T08:27:47.828Z,11.11
2023-01-09T08:30:17.330Z,11.41
2023-01-09T08:32:50.758Z,11.02
2023-01-09T08:35:19.111Z,10.89
2023-01-09T08:37:48.804Z,11.23
2023-01-09T08:40:17.615Z,11.46
2023-01-09T08:43:04.526Z,11.33
2023-01-09T08:45:50.998Z,11.55
2023-01-09T08:48:19.262Z,11.85
2023-01-09T08:50:47.325Z,11.67
2023-01-09T08:53:16.917Z,11.27
2023-01-09T08:55:44.835Z,11.50
2023-01-09T08:58:13.249Z,11.46
2023-01-09T09:00:41.261Z,11.67
2023-01-09T09:03:11.282Z,11.85
2023-01-09T09:05:39.323Z,12.03
2023-01-09T09:08:07.624Z,11.99
2023-01-09T09:10:35.608Z,12.24
2023-01-09T09:13:03.933Z,12.26
2023-01-09T09:15:31.927Z,12.10
2023-01-09T09:18:05.914Z,12.01
2023-01-09T09:20:38.583Z,12.28
2023-01-09T09:27:56.574Z,12.34
2023-01-09T09:30:25.162Z,12.40
2023-01-09T09:32:53.074Z,12.06
2023-01-09T09:35:23.062Z,11.66
2023-01-09T09:37:56.455Z,11.81
2023-01-09T09:40:40.648Z,12.08
2023-01-09T09:44:05.153Z,12.05
2023-01-09T09:46:54.894Z,12.14
2023-01-09T09:49:35.202Z,12.32
2023-01-09T09:52:33.024Z,12.25
2023-01-09T09:55:06.814Z,12.08
2023-01-09T09:57:37.520Z,12.10
2023-01-09T10:00:07.686Z,12.25
2023-01-09T10:02:42.329Z,12.32
2023-01-09T10:05:19.682Z,12.24
2023-01-09T10:07:51.179Z,12.34
2023-01-09T10:10:38.607Z,12.40
2023-01-09T10:13:31.849Z,12.38
2023-01-09T10:16:09.111Z,12.65
2023-01-09T10:19:16.788Z,12.58
2023-01-09T10:22:17.185Z,12.73
2023-01-09T10:25:10.193Z,12.64
2023-01-09T10:27:53.289Z,12.84
2023-01-09T10:30:33.487Z,12.78
2023-01-09T10:33:25.776Z,12.60
2023-01-09T10:36:15.629Z,12.49
2023-01-09T10:38:50.342Z,12.74
2023-01-09T10:41:24.297Z,12.74
2023-01-09T10:44:04.435Z,12.18
2023-01-09T10:46:45.232Z,11.43
2023-01-09T10:49:17.865Z,11.23
2023-01-09T10:51:51.964Z,11.18
2023-01-09T10:54:23.838Z,10.91
2023-01-09T10:56:57.017Z,11.23
2023-01-09T10:59:25.890Z,11.21
2023-01-09T11:01:54.772Z,11.28
2023-01-09T11:04:38.092Z,11.31
2023-01-09T11:07:18.762Z,11.46
2023-01-09T11:10:02.446Z,11.57
2023-01-09T11:12:34.122Z,11.74
2023-01-09T11:15:17.449Z,11.71
2023-01-09T11:17:51.324Z,11.61
2023-01-09T11:20:21.353Z,11.57
2023-01-09T11:22:55.713Z,11.73
2023-01-09T11:25:26.561Z,11.22
2023-01-09T11:28:03.825Z,11.45
2023-01-09T11:30:36.478Z,11.50
2023-01-09T11:33:20.405Z,11.32
2023-01-09T11:36:00.098Z,11.39
2023-01-09T11:38:29.888Z,11.25
2023-01-09T11:41:06.833Z,11.48
2023-01-09T11:43:39.293Z,11.25
2023-01-09T11:46:11.670Z,11.54
2023-01-09T11:48:53.855Z,11.33
2023-01-09T11:51:34.396Z,11.76
2023-01-09T11:54:25.573Z,11.22
2023-01-09T11:56:54.795Z,11.52
2023-01-09T11:59:29.313Z,11.38
2023-01-09T12:02:34.355Z,11.65
2023-01-09T12:05:36.643Z,11.78
2023-01-09T12:08:10.463Z,11.38
2023-01-09T12:11:16.336Z,11.37
2023-01-09T12:13:56.695Z,11.45
2023-01-09T12:16:54.136Z,11.56
2023-01-09T12:19:40.635Z,11.84
2023-01-09T12:22:50.231Z,11.53
2023-01-09T12:25:29.365Z,11.62
2023-01-09T12:28:33.201Z,11.44
2023-01-09T12:31:16.012Z,11.38
2023-01-09T12:33:54.870Z,11.37
2023-01-09T12:36:36.883Z,11.64
2023-01-09T12:39:24.409Z,11.40
2023-01-09T12:42:07.125Z,11.42
2023-01-09T12:44:58.038Z,11.28
2023-01-09T12:47:47.090Z,11.27
2023-01-09T12:50:41.605Z,11.52
2023-01-09T12:53:34.942Z,11.27
2023-01-09T12:56:15.860Z,11.85
2023-01-09T12:58:54.648Z,11.79
2023-01-09T13:01:29.137Z,11.69
2023-01-09T13:04:18.619Z,11.39
2023-01-09T13:06:59.984Z,11.69
2023-01-09T13:09:40.198Z,12.23
2023-01-09T13:12:22.297Z,12.20
2023-01-09T13:15:30.677Z,12.10
2023-01-09T13:18:12.794Z,12.22
2023-01-09T13:20:56.795Z,12.32
2023-01-09T13:23:43.058Z,12.54
2023-01-09T13:26:17.610Z,12.78
2023-01-09T13:29:00.049Z,13.41
2023-01-09T13:31:49.274Z,13.90
2023-01-09T13:34:24.687Z,14.31
2023-01-09T13:42:18.974Z,15.62
2023-01-09T13:42:46.614Z,17.82
2023-01-09T13:45:17.973Z,18.46
2023-01-09T13:47:46.352Z,18.79
2023-01-09T13:50:26.884Z,18.91
2023-01-09T13:52:54.920Z,18.97
2023-01-09T13:55:29.172Z,19.32
2023-01-09T13:58:06.616Z,19.20
2023-01-09T14:00:38.197Z,19.72
2023-01-09T14:03:08.779Z,20.44
2023-01-09T14:05:36.996Z,21.78
2023-01-09T14:08:32.475Z,23.76
2023-01-09T14:11:03.702Z,24.68
2023-01-09T14:13:39.131Z,25.68
2023-01-09T14:16:16.548Z,24.97
2023-01-09T14:19:02.191Z,23.94
2023-01-09T14:21:54.328Z,23.45
2023-01-09T14:24:28.243Z,22.40
2023-01-09T14:27:01.771Z,19.39
2023-01-09T14:29:29.696Z,18.38
2023-01-09T14:32:30.906Z,18.06
2023-01-09T14:35:17.850Z,17.58
2023-01-09T14:37:58.678Z,17.31
2023-01-09T14:40:26.604Z,16.94
2023-01-09T14:42:58.473Z,16.79
2023-01-09T14:45:27.799Z,16.09
2023-01-09T14:48:01.361Z,16.93
2023-01-09T14:50:45.182Z,20.53
2023-01-09T14:53:21.024Z,22.08
2023-01-09T14:56:00.303Z,21.18
2023-01-09T14:58:31.112Z,18.97
2023-01-09T15:01:06.598Z,17.66
2023-01-09T15:03:44.628Z,16.60
2023-01-09T15:06:18.412Z,15.54
2023-01-09T15:08:51.249Z,15.65
2023-01-09T15:11:19.337Z,15.92
2023-01-09T15:13:50.748Z,16.76
2023-01-09T15:16:25.013Z,19.23
2023-01-09T15:19:07.876Z,20.44
2023-01-09T15:21:35.924Z,20.72
2023-01-09T15:24:13.661Z,20.28
2023-01-09T15:26:41.530Z,18.34
2023-01-09T15:29:20.789Z,17.02
2023-01-09T15:31:53.654Z,16.45
2023-01-09T15:34:25.370Z,16.17
2023-01-09T15:36:54.803Z,16.18
2023-01-09T15:39:26.918Z,15.92
2023-01-09T15:42:13.983Z,15.64
2023-01-09T15:44:45.018Z,15.24
2023-01-09T15:47:33.030Z,15.21
2023-01-09T15:50:04.106Z,14.85
2023-01-09T15:52:32.157Z,14.76
2023-01-09T15:55:01.476Z,14.67
2023-01-09T15:57:34.427Z,14.44
2023-01-09T16:00:33.576Z,14.59
2023-01-09T16:03:16.617Z,14.41
2023-01-09T16:06:10.761Z,14.12
2023-01-09T16:08:43.181Z,14.06
2023-01-09T16:11:26.551Z,14.05
2023-01-09T16:13:57.450Z,13.78
2023-01-09T16:16:33.023Z,13.83
2023-01-09T16:19:01.120Z,13.54
2023-01-09T16:21:35.018Z,13.44
2023-01-09T16:24:14.921Z,13.43
2023-01-09T16:26:44.567Z,13.59
2023-01-09T16:29:33.830Z,13.31
2023-01-09T16:32:03.790Z,13.33
2023-01-09T16:34:35.353Z,13.25
2023-01-09T16:37:05.830Z,12.97
2023-01-09T16:39:33.896Z,12.82
2023-01-09T16:42:20.756Z,12.87
2023-01-09T16:44:48.839Z,12.63
2023-01-09T16:47:17.038Z,12.79
2023-01-09T16:49:45.116Z,12.54
2023-01-09T16:52:17.693Z,12.06
2023-01-09T16:54:47.633Z,12.35
2023-01-09T16:57:21.354Z,12.40
2023-01-09T16:59:49.640Z,12.38
2023-01-09T17:02:21.035Z,12.50
2023-01-09T17:04:49.207Z,12.37
2023-01-09T17:07:20.152Z,11.86
2023-01-09T17:09:48.785Z,12.19
2023-01-09T17:12:20.141Z,12.39
2023-01-09T17:14:49.867Z,12.19
2023-01-09T17:17:18.549Z,12.40
2023-01-09T17:19:46.986Z,12.00
2023-01-09T17:22:15.539Z,12.58
2023-01-09T17:25:02.228Z,12.55
2023-01-09T17:27:54.530Z,12.67
2023-01-09T17:30:23.158Z,12.52
2023-01-09T17:32:51.526Z,12.38
2023-01-09T17:35:19.483Z,12.26
2023-01-09T17:37:47.760Z,12.32
2023-01-09T17:40:22.451Z,12.38
2023-01-09T17:42:50.728Z,12.30
2023-01-09T17:45:18.722Z,12.35
2023-01-09T17:47:47.064Z,12.26
2023-01-09T17:50:20.197Z,12.36
2023-01-09T17:52:49.203Z,12.21
2023-01-09T17:55:17.144Z,12.20
2023-01-09T17:57:45.663Z,12.01
2023-01-09T18:00:24.995Z,12.21
2023-01-09T18:02:53.961Z,12.14
2023-01-09T18:05:23.393Z,12.29
2023-01-09T18:07:52.124Z,12.25
2023-01-09T18:10:23.818Z,12.11
2023-01-09T18:12:52.756Z,11.93
2023-01-09T18:15:23.506Z,12.01
2023-01-09T18:17:52.984Z,11.96
2023-01-09T18:20:20.836Z,12.11
2023-01-09T18:22:49.885Z,12.13
2023-01-09T18:25:18.393Z,12.14
2023-01-09T18:27:46.847Z,12.02
2023-01-09T18:30:14.960Z,12.20
2023-01-09T18:32:43.217Z,11.69
2023-01-09T18:35:11.395Z,11.76
2023-01-09T18:37:39.665Z,11.77
2023-01-09T18:40:08.913Z,11.81
2023-01-09T18:42:37.258Z,11.83
2023-01-09T18:45:05.808Z,11.90
2023-01-09T18:47:34.228Z,11.73
2023-01-09T18:50:02.199Z,11.68
2023-01-09T18:52:30.476Z,11.77
2023-01-09T18:54:58.476Z,11.89
2023-01-09T18:57:26.843Z,11.79
2023-01-09T18:59:54.684Z,11.71
2023-01-09T19:02:25.517Z,11.99
2023-01-09T19:04:53.716Z,11.90
2023-01-09T19:07:22.090Z,11.80
2023-01-09T19:09:50.943Z,11.53
2023-01-09T19:12:18.983Z,11.67
2023-01-09T19:14:47.391Z,11.83
2023-01-09T19:17:15.790Z,11.65
2023-01-09T19:19:44.302Z,11.80
2023-01-09T19:22:12.310Z,11.62
2023-01-09T19:24:41.803Z,11.53
2023-01-09T19:27:17.181Z,11.84
2023-01-09T19:29:45.631Z,11.92
2023-01-09T19:32:14.053Z,11.96
2023-01-09T19:34:42.336Z,11.52
2023-01-09T19:37:10.575Z,11.46
2023-01-09T19:39:38.949Z,11.20
2023-01-09T19:42:06.985Z,11.45
2023-01-09T19:44:35.262Z,11.49
2023-01-09T19:47:03.250Z,11.19
2023-01-09T19:49:32.576Z,11.29
2023-01-09T19:52:00.944Z,11.25
2023-01-09T19:54:30.558Z,11.35
2023-01-09T19:56:59.031Z,11.13
2023-01-09T19:59:27.314Z,11.28
2023-01-09T20:01:55.706Z,11.24
2023-01-09T20:04:26.991Z,11.28
2023-01-09T20:06:54.992Z,11.44
2023-01-09T20:09:26.170Z,11.55
2023-01-09T20:11:54.079Z,11.49
2023-01-09T20:14:22.879Z,11.62
2023-01-09T20:16:54.242Z,11.48
2023-01-09T20:19:22.732Z,11.46
2023-01-09T20:21:50.807Z,11.36
2023-01-09T20:24:20.421Z,11.30
2023-01-09T20:26:48.479Z,11.22
2023-01-09T20:29:17.214Z,11.13
2023-01-09T20:31:45.570Z,11.02
2023-01-09T20:34:15.146Z,10.99
2023-01-09T20:36:43.765Z,10.97
2023-01-09T20:39:14.438Z,10.87
2023-01-09T20:41:42.699Z,11.03
2023-01-09T20:44:14.182Z,10.94
2023-01-09T20:46:47.797Z,11.09
2023-01-09T20:49:21.142Z,10.90
2023-01-09T20:51:52.891Z,10.70
2023-01-09T20:54:22.742Z,10.68
2023-01-09T20:56:51.468Z,10.89
2023-01-09T20:59:21.084Z,10.98
2023-01-09T21:01:49.743Z,10.25
2023-01-09T21:04:19.513Z,9.93
2023-01-09T21:06:49.785Z,9.84
2023-01-09T21:09:18.928Z,9.77
2023-01-09T21:11:46.823Z,9.79
2023-01-09T21:14:15.029Z,9.53
2023-01-09T21:16:45.533Z,9.67
2023-01-09T21:19:19.928Z,9.38
2023-01-09T21:21:47.840Z,9.25
2023-01-09T21:24:16.213Z,9.24
2023-01-09T21:26:44.091Z,9.43
2023-01-09T21:29:13.266Z,9.19
2023-01-09T21:31:41.543Z,9.36
2023-01-09T21:34:14.784Z,9.25
2023-01-09T21:36:45.276Z,9.39
2023-01-09T21:39:19.281Z,9.24
2023-01-09T21:42:22.790Z,9.13
2023-01-09T21:45:09.908Z,9.17
2023-01-09T21:47:37.857Z,9.21
2023-01-09T21:50:08.018Z,9.18
2023-01-09T21:52:37.379Z,9.28
2023-01-09T21:55:07.203Z,9.38
2023-01-09T21:57:35.167Z,9.44
2023-01-09T22:00:04.366Z,9.03
2023-01-09T22:02:41.354Z,8.56
2023-01-09T22:05:09.793Z,8.57
2023-01-09T22:07:37.859Z,8.85
2023-01-09T22:10:06.905Z,8.96
2023-01-09T22:12:35.174Z,9.09
2023-01-09T22:15:04.115Z,9.14
2023-01-09T22:17:32.099Z,9.19
2023-01-09T22:20:00.420Z,9.44
2023-01-09T22:22:29.033Z,9.16
2023-01-09T22:24:59.479Z,9.16
2023-01-09T22:27:27.624Z,9.37
2023-01-09T22:29:55.855Z,9.59
2023-01-09T22:32:23.756Z,9.64
2023-01-09T22:34:53.089Z,9.60
2023-01-09T22:37:21.061Z,9.39
2023-01-09T22:39:49.360Z,9.65
2023-01-09T22:42:17.313Z,9.47
2023-01-09T22:44:46.722Z,9.62
2023-01-09T22:47:14.757Z,9.54
2023-01-09T22:49:52.213Z,9.39
2023-01-09T22:52:21.906Z,9.34
2023-01-09T22:54:50.787Z,9.41
2023-01-09T22:57:18.805Z,9.49
2023-01-09T22:59:48.076Z,9.40
2023-01-09T23:02:16.151Z,9.27
2023-01-09T23:04:44.669Z,9.38
2023-01-09T23:07:12.794Z,9.47
2023-01-09T23:09:41.188Z,9.25
2023-01-09T23:12:10.536Z,9.32
2023-01-09T23:14:39.270Z,9.26
2023-01-09T23:17:10.700Z,9.27
2023-01-09T23:19:40.666Z,9.12
2023-01-09T23:22:08.666Z,9.19
2023-01-09T23:24:38.237Z,9.05
2023-01-09T23:27:07.863Z,9.10
2023-01-09T23:29:39.645Z,9.44
2023-01-09T23:32:07.868Z,9.32
2023-01-09T23:34:37.310Z,9.20
2023-01-09T23:37:09.215Z,9.23
2023-01-09T23:39:37.714Z,9.16
2023-01-09T23:42:24.358Z,9.05
2023-01-09T23:44:53.691Z,9.06
2023-01-09T23:47:21.734Z,8.89
2023-01-09T23:49:51.352Z,8.99
2023-01-09T23:52:19.295Z,9.06
2023-01-09T23:54:47.563Z,9.01
2023-01-09T23:57:16.367Z,9.06
2023-01-09T23:59:44.646Z,9.26
